sensor_id;sensor_type;location;lat;lon;timestamp;P1;durP1;ratioP1;P2;durP2;ratioP2
33327;SDS011;19692;52.998;9.116;2023-09-19T00:00:18;7.87;;;4.10;;
33327;SDS011;19692;52.998;9.116;2023-09-19T00:02:53;5.83;;;4.20;;
33327;SDS011;19692;52.998;9.116;2023-09-19T00:05:19;6.23;;;4.50;;
33327;SDS011;19692;52.998;9.116;2023-09-19T00:07:49;6.67;;;4.13;;
33327;SDS011;19692;52.998;9.116;2023-09-19T00:10:20;7.87;;;4.67;;
33327;SDS011;19692;52.998;9.116;2023-09-19T00:12:53;7.77;;;4.33;;
33327;SDS011;19692;52.998;9.116;2023-09-19T00:15:20;9.90;;;4.90;;
33327;SDS011;19692;52.998;9.116;2023-09-19T00:17:47;5.77;;;4.43;;
33327;SDS011;19692;52.998;9.116;2023-09-19T00:20:13;7.13;;;4.73;;
33327;SDS011;19692;52.998;9.116;2023-09-19T00:22:43;7.77;;;4.80;;
33327;SDS011;19692;52.998;9.116;2023-09-19T00:25:09;6.33;;;4.20;;
33327;SDS011;19692;52.998;9.116;2023-09-19T00:27:37;8.30;;;4.67;;
33327;SDS011;19692;52.998;9.116;2023-09-19T00:30:07;8.03;;;4.40;;
33327;SDS011;19692;52.998;9.116;2023-09-19T00:32:50;8.17;;;4.77;;
33327;SDS011;19692;52.998;9.116;2023-09-19T00:35:22;7.67;;;4.43;;
33327;SDS011;19692;52.998;9.116;2023-09-19T00:37:49;8.60;;;4.40;;
33327;SDS011;19692;52.998;9.116;2023-09-19T00:40:15;5.73;;;4.50;;
33327;SDS011;19692;52.998;9.116;2023-09-19T00:42:45;8.23;;;5.00;;
33327;SDS011;19692;52.998;9.116;2023-09-19T00:45:12;6.93;;;4.20;;
33327;SDS011;19692;52.998;9.116;2023-09-19T00:47:44;7.03;;;4.93;;
33327;SDS011;19692;52.998;9.116;2023-09-19T00:50:16;7.33;;;4.60;;
33327;SDS011;19692;52.998;9.116;2023-09-19T00:52:44;8.33;;;5.60;;
33327;SDS011;19692;52.998;9.116;2023-09-19T00:55:15;7.13;;;4.53;;
33327;SDS011;19692;52.998;9.116;2023-09-19T00:57:41;10.73;;;4.33;;
33327;SDS011;19692;52.998;9.116;2023-09-19T01:00:09;9.93;;;4.60;;
33327;SDS011;19692;52.998;9.116;2023-09-19T01:02:40;7.67;;;4.57;;
33327;SDS011;19692;52.998;9.116;2023-09-19T01:05:09;7.83;;;4.10;;
33327;SDS011;19692;52.998;9.116;2023-09-19T01:07:36;7.67;;;4.70;;
33327;SDS011;19692;52.998;9.116;2023-09-19T01:10:10;9.73;;;4.40;;
33327;SDS011;19692;52.998;9.116;2023-09-19T01:16:00;6.07;;;4.17;;
33327;SDS011;19692;52.998;9.116;2023-09-19T01:19:01;7.93;;;4.47;;
33327;SDS011;19692;52.998;9.116;2023-09-19T01:21:50;8.63;;;3.90;;
33327;SDS011;19692;52.998;9.116;2023-09-19T01:24:34;5.43;;;4.23;;
33327;SDS011;19692;52.998;9.116;2023-09-19T01:27:49;8.40;;;4.13;;
33327;SDS011;19692;52.998;9.116;2023-09-19T01:30:56;7.13;;;4.33;;
33327;SDS011;19692;52.998;9.116;2023-09-19T01:33:25;7.77;;;4.50;;
33327;SDS011;19692;52.998;9.116;2023-09-19T01:35:51;9.17;;;4.47;;
33327;SDS011;19692;52.998;9.116;2023-09-19T01:38:18;9.30;;;4.13;;
33327;SDS011;19692;52.998;9.116;2023-09-19T01:40:47;11.13;;;4.07;;
33327;SDS011;19692;52.998;9.116;2023-09-19T01:43:41;10.50;;;4.30;;
33327;SDS011;19692;52.998;9.116;2023-09-19T01:51:43;5.67;;;2.80;;
33327;SDS011;19692;52.998;9.116;2023-09-19T01:54:21;4.70;;;2.30;;
33327;SDS011;19692;52.998;9.116;2023-09-19T01:59:43;4.07;;;2.13;;
33327;SDS011;19692;52.998;9.116;2023-09-19T02:02:17;5.57;;;2.80;;
33327;SDS011;19692;52.998;9.116;2023-09-19T02:04:43;7.37;;;2.60;;
33327;SDS011;19692;52.998;9.116;2023-09-19T02:07:09;3.77;;;2.30;;
33327;SDS011;19692;52.998;9.116;2023-09-19T02:09:35;6.33;;;2.27;;
33327;SDS011;19692;52.998;9.116;2023-09-19T02:12:03;3.43;;;2.43;;
33327;SDS011;19692;52.998;9.116;2023-09-19T02:14:29;2.57;;;2.20;;
33327;SDS011;19692;52.998;9.116;2023-09-19T02:16:55;2.23;;;1.93;;
33327;SDS011;19692;52.998;9.116;2023-09-19T02:19:21;3.07;;;2.30;;
33327;SDS011;19692;52.998;9.116;2023-09-19T02:21:47;3.83;;;2.10;;
33327;SDS011;19692;52.998;9.116;2023-09-19T02:24:14;3.70;;;2.40;;
33327;SDS011;19692;52.998;9.116;2023-09-19T02:26:40;3.30;;;2.13;;
33327;SDS011;19692;52.998;9.116;2023-09-19T02:29:06;4.83;;;2.27;;
33327;SDS011;19692;52.998;9.116;2023-09-19T02:31:32;3.83;;;2.20;;
33327;SDS011;19692;52.998;9.116;2023-09-19T02:33:57;3.13;;;2.20;;
33327;SDS011;19692;52.998;9.116;2023-09-19T02:36:25;3.27;;;2.30;;
33327;SDS011;19692;52.998;9.116;2023-09-19T02:38:51;3.23;;;2.50;;
33327;SDS011;19692;52.998;9.116;2023-09-19T02:41:16;3.97;;;2.60;;
33327;SDS011;19692;52.998;9.116;2023-09-19T02:43:42;3.60;;;2.17;;
33327;SDS011;19692;52.998;9.116;2023-09-19T02:46:08;4.17;;;2.90;;
33327;SDS011;19692;52.998;9.116;2023-09-19T02:48:34;4.90;;;2.33;;
33327;SDS011;19692;52.998;9.116;2023-09-19T02:51:00;5.43;;;2.20;;
33327;SDS011;19692;52.998;9.116;2023-09-19T02:53:26;4.20;;;2.20;;
33327;SDS011;19692;52.998;9.116;2023-09-19T02:55:52;5.43;;;2.57;;
33327;SDS011;19692;52.998;9.116;2023-09-19T02:58:19;4.10;;;2.23;;
33327;SDS011;19692;52.998;9.116;2023-09-19T03:00:44;4.33;;;2.37;;
33327;SDS011;19692;52.998;9.116;2023-09-19T03:03:12;5.17;;;2.40;;
33327;SDS011;19692;52.998;9.116;2023-09-19T03:05:39;4.80;;;2.10;;
33327;SDS011;19692;52.998;9.116;2023-09-19T03:08:05;4.53;;;2.37;;
33327;SDS011;19692;52.998;9.116;2023-09-19T03:10:34;7.57;;;2.53;;
33327;SDS011;19692;52.998;9.116;2023-09-19T03:13:02;3.97;;;2.33;;
33327;SDS011;19692;52.998;9.116;2023-09-19T03:15:28;5.13;;;2.50;;
33327;SDS011;19692;52.998;9.116;2023-09-19T03:17:54;7.37;;;2.57;;
33327;SDS011;19692;52.998;9.116;2023-09-19T03:20:20;4.27;;;2.43;;
33327;SDS011;19692;52.998;9.116;2023-09-19T03:22:45;6.80;;;2.63;;
33327;SDS011;19692;52.998;9.116;2023-09-19T03:25:11;7.43;;;2.60;;
33327;SDS011;19692;52.998;9.116;2023-09-19T03:27:38;8.37;;;2.30;;
33327;SDS011;19692;52.998;9.116;2023-09-19T03:30:04;10.47;;;2.90;;
33327;SDS011;19692;52.998;9.116;2023-09-19T03:32:36;7.40;;;2.63;;
33327;SDS011;19692;52.998;9.116;2023-09-19T03:35:08;6.10;;;2.87;;
33327;SDS011;19692;52.998;9.116;2023-09-19T03:37:34;5.33;;;3.43;;
33327;SDS011;19692;52.998;9.116;2023-09-19T03:40:00;7.03;;;2.73;;
33327;SDS011;19692;52.998;9.116;2023-09-19T03:42:29;9.73;;;3.10;;
33327;SDS011;19692;52.998;9.116;2023-09-19T03:44:56;7.97;;;3.13;;
33327;SDS011;19692;52.998;9.116;2023-09-19T03:47:22;3.87;;;2.60;;
33327;SDS011;19692;52.998;9.116;2023-09-19T03:49:47;7.27;;;3.73;;
33327;SDS011;19692;52.998;9.116;2023-09-19T03:52:13;7.23;;;2.77;;
33327;SDS011;19692;52.998;9.116;2023-09-19T03:54:40;6.33;;;3.03;;
33327;SDS011;19692;52.998;9.116;2023-09-19T03:57:06;8.83;;;3.30;;
33327;SDS011;19692;52.998;9.116;2023-09-19T03:59:32;6.90;;;3.50;;
33327;SDS011;19692;52.998;9.116;2023-09-19T04:01:58;6.43;;;3.17;;
33327;SDS011;19692;52.998;9.116;2023-09-19T04:04:24;9.60;;;3.47;;
33327;SDS011;19692;52.998;9.116;2023-09-19T04:06:50;12.97;;;3.60;;
33327;SDS011;19692;52.998;9.116;2023-09-19T04:09:17;9.43;;;3.27;;
33327;SDS011;19692;52.998;9.116;2023-09-19T04:11:43;12.07;;;3.43;;
33327;SDS011;19692;52.998;9.116;2023-09-19T04:14:08;11.10;;;3.47;;
33327;SDS011;19692;52.998;9.116;2023-09-19T04:16:34;8.40;;;3.20;;
33327;SDS011;19692;52.998;9.116;2023-09-19T04:19:00;11.87;;;3.80;;
33327;SDS011;19692;52.998;9.116;2023-09-19T04:21:26;9.37;;;3.60;;
33327;SDS011;19692;52.998;9.116;2023-09-19T04:23:53;12.70;;;3.90;;
33327;SDS011;19692;52.998;9.116;2023-09-19T04:26:19;9.13;;;3.07;;
33327;SDS011;19692;52.998;9.116;2023-09-19T04:28:44;9.47;;;4.30;;
33327;SDS011;19692;52.998;9.116;2023-09-19T04:31:11;8.83;;;3.63;;
33327;SDS011;19692;52.998;9.116;2023-09-19T04:33:37;10.37;;;3.43;;
33327;SDS011;19692;52.998;9.116;2023-09-19T04:36:02;7.37;;;3.30;;
33327;SDS011;19692;52.998;9.116;2023-09-19T04:38:30;6.47;;;3.27;;
33327;SDS011;19692;52.998;9.116;2023-09-19T04:40:56;10.77;;;4.07;;
33327;SDS011;19692;52.998;9.116;2023-09-19T04:43:24;9.93;;;3.60;;
33327;SDS011;19692;52.998;9.116;2023-09-19T04:45:50;8.60;;;3.17;;
33327;SDS011;19692;52.998;9.116;2023-09-19T04:48:19;8.20;;;3.87;;
33327;SDS011;19692;52.998;9.116;2023-09-19T04:50:45;10.50;;;3.23;;
33327;SDS011;19692;52.998;9.116;2023-09-19T04:53:10;7.80;;;3.87;;
33327;SDS011;19692;52.998;9.116;2023-09-19T04:55:36;9.47;;;3.63;;
33327;SDS011;19692;52.998;9.116;2023-09-19T04:58:02;6.63;;;3.17;;
33327;SDS011;19692;52.998;9.116;2023-09-19T05:00:28;7.97;;;3.50;;
33327;SDS011;19692;52.998;9.116;2023-09-19T05:02:55;10.00;;;3.30;;
33327;SDS011;19692;52.998;9.116;2023-09-19T05:05:22;9.27;;;3.67;;
33327;SDS011;19692;52.998;9.116;2023-09-19T05:07:49;12.87;;;3.37;;
33327;SDS011;19692;52.998;9.116;2023-09-19T05:10:16;12.73;;;4.40;;
33327;SDS011;19692;52.998;9.116;2023-09-19T05:12:43;11.37;;;4.03;;
33327;SDS011;19692;52.998;9.116;2023-09-19T05:15:11;8.70;;;4.03;;
33327;SDS011;19692;52.998;9.116;2023-09-19T05:17:39;8.43;;;3.23;;
33327;SDS011;19692;52.998;9.116;2023-09-19T05:20:05;10.03;;;3.60;;
33327;SDS011;19692;52.998;9.116;2023-09-19T05:22:49;9.17;;;3.47;;
33327;SDS011;19692;52.998;9.116;2023-09-19T05:25:33;7.30;;;3.50;;
33327;SDS011;19692;52.998;9.116;2023-09-19T05:28:02;10.37;;;3.73;;
33327;SDS011;19692;52.998;9.116;2023-09-19T05:30:31;12.07;;;4.13;;
33327;SDS011;19692;52.998;9.116;2023-09-19T05:32:57;10.33;;;3.57;;
33327;SDS011;19692;52.998;9.116;2023-09-19T05:35:23;11.13;;;4.07;;
33327;SDS011;19692;52.998;9.116;2023-09-19T05:37:50;10.47;;;4.23;;
33327;SDS011;19692;52.998;9.116;2023-09-19T05:40:18;7.67;;;3.20;;
33327;SDS011;19692;52.998;9.116;2023-09-19T05:42:44;13.43;;;3.87;;
33327;SDS011;19692;52.998;9.116;2023-09-19T05:45:11;9.87;;;4.00;;
33327;SDS011;19692;52.998;9.116;2023-09-19T05:47:40;8.93;;;3.90;;
33327;SDS011;19692;52.998;9.116;2023-09-19T05:50:08;11.87;;;3.70;;
33327;SDS011;19692;52.998;9.116;2023-09-19T05:52:38;8.03;;;3.60;;
33327;SDS011;19692;52.998;9.116;2023-09-19T05:55:04;12.00;;;3.60;;
33327;SDS011;19692;52.998;9.116;2023-09-19T05:57:32;11.47;;;4.17;;
33327;SDS011;19692;52.998;9.116;2023-09-19T06:00:01;12.53;;;4.17;;
33327;SDS011;19692;52.998;9.116;2023-09-19T06:02:33;15.43;;;3.97;;
33327;SDS011;19692;52.998;9.116;2023-09-19T06:05:00;12.90;;;4.40;;
33327;SDS011;19692;52.998;9.116;2023-09-19T06:07:26;13.57;;;4.67;;
33327;SDS011;19692;52.998;9.116;2023-09-19T06:10:01;11.57;;;4.83;;
33327;SDS011;19692;52.998;9.116;2023-09-19T06:12:30;9.27;;;4.47;;
33327;SDS011;19692;52.998;9.116;2023-09-19T06:14:58;12.60;;;4.20;;
33327;SDS011;19692;52.998;9.116;2023-09-19T06:17:24;13.47;;;4.70;;
33327;SDS011;19692;52.998;9.116;2023-09-19T06:19:52;13.23;;;4.63;;
33327;SDS011;19692;52.998;9.116;2023-09-19T06:22:18;11.03;;;4.00;;
33327;SDS011;19692;52.998;9.116;2023-09-19T06:24:44;12.87;;;4.60;;
33327;SDS011;19692;52.998;9.116;2023-09-19T06:27:14;9.73;;;4.13;;
33327;SDS011;19692;52.998;9.116;2023-09-19T06:29:40;14.47;;;4.90;;
33327;SDS011;19692;52.998;9.116;2023-09-19T06:32:07;12.30;;;5.00;;
33327;SDS011;19692;52.998;9.116;2023-09-19T06:34:36;11.03;;;5.67;;
33327;SDS011;19692;52.998;9.116;2023-09-19T06:37:08;12.20;;;4.53;;
33327;SDS011;19692;52.998;9.116;2023-09-19T06:39:33;12.40;;;4.60;;
33327;SDS011;19692;52.998;9.116;2023-09-19T06:41:59;13.87;;;5.07;;
33327;SDS011;19692;52.998;9.116;2023-09-19T06:44:26;11.00;;;4.77;;
33327;SDS011;19692;52.998;9.116;2023-09-19T06:47:00;13.40;;;5.23;;
33327;SDS011;19692;52.998;9.116;2023-09-19T06:49:26;11.47;;;4.03;;
33327;SDS011;19692;52.998;9.116;2023-09-19T06:51:54;13.17;;;4.03;;
33327;SDS011;19692;52.998;9.116;2023-09-19T06:54:20;12.13;;;4.00;;
33327;SDS011;19692;52.998;9.116;2023-09-19T06:56:46;9.90;;;3.73;;
33327;SDS011;19692;52.998;9.116;2023-09-19T06:59:12;10.97;;;4.37;;
33327;SDS011;19692;52.998;9.116;2023-09-19T07:01:39;11.83;;;4.20;;
33327;SDS011;19692;52.998;9.116;2023-09-19T07:04:06;12.13;;;4.13;;
33327;SDS011;19692;52.998;9.116;2023-09-19T07:06:32;10.97;;;3.60;;
33327;SDS011;19692;52.998;9.116;2023-09-19T07:08:58;9.90;;;4.03;;
33327;SDS011;19692;52.998;9.116;2023-09-19T07:11:24;15.77;;;3.87;;
33327;SDS011;19692;52.998;9.116;2023-09-19T07:13:49;11.43;;;3.70;;
33327;SDS011;19692;52.998;9.116;2023-09-19T07:16:15;14.03;;;4.17;;
33327;SDS011;19692;52.998;9.116;2023-09-19T07:18:52;14.97;;;3.60;;
33327;SDS011;19692;52.998;9.116;2023-09-19T07:21:21;12.63;;;3.70;;
33327;SDS011;19692;52.998;9.116;2023-09-19T07:23:48;11.47;;;3.37;;
33327;SDS011;19692;52.998;9.116;2023-09-19T07:26:15;8.83;;;3.97;;
33327;SDS011;19692;52.998;9.116;2023-09-19T07:28:41;15.83;;;4.23;;
33327;SDS011;19692;52.998;9.116;2023-09-19T07:31:07;12.10;;;3.60;;
33327;SDS011;19692;52.998;9.116;2023-09-19T07:33:35;11.03;;;4.70;;
33327;SDS011;19692;52.998;9.116;2023-09-19T07:36:01;10.50;;;3.47;;
33327;SDS011;19692;52.998;9.116;2023-09-19T07:38:27;12.53;;;3.60;;
33327;SDS011;19692;52.998;9.116;2023-09-19T07:40:59;10.53;;;3.60;;
33327;SDS011;19692;52.998;9.116;2023-09-19T07:43:25;14.97;;;4.10;;
33327;SDS011;19692;52.998;9.116;2023-09-19T07:45:51;10.47;;;3.43;;
33327;SDS011;19692;52.998;9.116;2023-09-19T07:48:18;13.27;;;3.73;;
33327;SDS011;19692;52.998;9.116;2023-09-19T07:50:44;9.40;;;3.30;;
33327;SDS011;19692;52.998;9.116;2023-09-19T07:53:09;11.83;;;3.20;;
33327;SDS011;19692;52.998;9.116;2023-09-19T07:55:38;14.00;;;3.57;;
33327;SDS011;19692;52.998;9.116;2023-09-19T07:58:06;11.77;;;2.93;;
33327;SDS011;19692;52.998;9.116;2023-09-19T08:00:32;10.40;;;3.73;;
33327;SDS011;19692;52.998;9.116;2023-09-19T08:03:00;8.80;;;3.10;;
33327;SDS011;19692;52.998;9.116;2023-09-19T08:05:27;10.60;;;3.23;;
33327;SDS011;19692;52.998;9.116;2023-09-19T08:07:53;12.23;;;3.90;;
33327;SDS011;19692;52.998;9.116;2023-09-19T08:10:21;10.00;;;3.00;;
33327;SDS011;19692;52.998;9.116;2023-09-19T08:12:47;6.30;;;2.60;;
33327;SDS011;19692;52.998;9.116;2023-09-19T08:17:41;7.13;;;2.87;;
33327;SDS011;19692;52.998;9.116;2023-09-19T08:20:07;9.33;;;3.13;;
33327;SDS011;19692;52.998;9.116;2023-09-19T08:22:42;10.13;;;3.33;;
33327;SDS011;19692;52.998;9.116;2023-09-19T08:25:11;11.10;;;3.57;;
33327;SDS011;19692;52.998;9.116;2023-09-19T08:27:37;13.50;;;3.70;;
33327;SDS011;19692;52.998;9.116;2023-09-19T08:30:03;11.77;;;3.17;;
33327;SDS011;19692;52.998;9.116;2023-09-19T08:32:29;11.10;;;3.47;;
33327;SDS011;19692;52.998;9.116;2023-09-19T08:34:54;10.20;;;3.10;;
33327;SDS011;19692;52.998;9.116;2023-09-19T08:37:20;8.90;;;3.13;;
33327;SDS011;19692;52.998;9.116;2023-09-19T08:39:46;6.83;;;2.77;;
33327;SDS011;19692;52.998;9.116;2023-09-19T08:42:12;10.40;;;3.03;;
33327;SDS011;19692;52.998;9.116;2023-09-19T08:44:38;5.97;;;2.80;;
33327;SDS011;19692;52.998;9.116;2023-09-19T08:47:09;12.77;;;3.30;;
33327;SDS011;19692;52.998;9.116;2023-09-19T08:49:41;7.60;;;3.53;;
33327;SDS011;19692;52.998;9.116;2023-09-19T08:52:27;6.37;;;2.77;;
33327;SDS011;19692;52.998;9.116;2023-09-19T08:55:01;8.33;;;3.10;;
33327;SDS011;19692;52.998;9.116;2023-09-19T08:57:29;11.07;;;3.30;;
33327;SDS011;19692;52.998;9.116;2023-09-19T09:00:02;10.30;;;3.43;;
33327;SDS011;19692;52.998;9.116;2023-09-19T09:02:37;8.23;;;2.90;;
33327;SDS011;19692;52.998;9.116;2023-09-19T09:05:08;10.97;;;3.23;;
33327;SDS011;19692;52.998;9.116;2023-09-19T09:07:39;12.03;;;3.27;;
33327;SDS011;19692;52.998;9.116;2023-09-19T09:10:06;9.10;;;2.97;;
33327;SDS011;19692;52.998;9.116;2023-09-19T09:12:32;12.13;;;3.43;;
33327;SDS011;19692;52.998;9.116;2023-09-19T09:15:01;10.00;;;3.20;;
33327;SDS011;19692;52.998;9.116;2023-09-19T09:17:28;9.27;;;3.13;;
33327;SDS011;19692;52.998;9.116;2023-09-19T09:19:55;10.97;;;3.20;;
33327;SDS011;19692;52.998;9.116;2023-09-19T09:22:21;6.50;;;3.03;;
33327;SDS011;19692;52.998;9.116;2023-09-19T09:27:23;8.53;;;3.27;;
33327;SDS011;19692;52.998;9.116;2023-09-19T09:29:50;13.30;;;3.57;;
33327;SDS011;19692;52.998;9.116;2023-09-19T09:32:23;6.53;;;3.03;;
33327;SDS011;19692;52.998;9.116;2023-09-19T09:34:55;7.50;;;2.77;;
33327;SDS011;19692;52.998;9.116;2023-09-19T09:37:24;7.67;;;3.10;;
33327;SDS011;19692;52.998;9.116;2023-09-19T09:39:59;7.77;;;2.80;;
33327;SDS011;19692;52.998;9.116;2023-09-19T09:42:40;9.20;;;3.17;;
33327;SDS011;19692;52.998;9.116;2023-09-19T09:47:57;7.97;;;2.63;;
33327;SDS011;19692;52.998;9.116;2023-09-19T09:50:46;9.80;;;3.17;;
33327;SDS011;19692;52.998;9.116;2023-09-19T09:53:20;5.30;;;2.67;;
33327;SDS011;19692;52.998;9.116;2023-09-19T09:56:07;8.13;;;3.00;;
33327;SDS011;19692;52.998;9.116;2023-09-19T09:58:38;10.90;;;3.03;;
33327;SDS011;19692;52.998;9.116;2023-09-19T10:01:19;8.97;;;2.90;;
33327;SDS011;19692;52.998;9.116;2023-09-19T10:03:46;6.77;;;2.90;;
33327;SDS011;19692;52.998;9.116;2023-09-19T10:06:15;9.27;;;3.10;;
33327;SDS011;19692;52.998;9.116;2023-09-19T10:11:46;13.30;;;3.33;;
33327;SDS011;19692;52.998;9.116;2023-09-19T10:14:19;6.40;;;2.90;;
33327;SDS011;19692;52.998;9.116;2023-09-19T10:16:49;7.20;;;2.77;;
33327;SDS011;19692;52.998;9.116;2023-09-19T10:19:23;7.30;;;2.83;;
33327;SDS011;19692;52.998;9.116;2023-09-19T10:21:58;8.00;;;3.07;;
33327;SDS011;19692;52.998;9.116;2023-09-19T10:24:26;8.57;;;3.27;;
33327;SDS011;19692;52.998;9.116;2023-09-19T10:26:53;10.73;;;3.17;;
33327;SDS011;19692;52.998;9.116;2023-09-19T10:29:21;7.33;;;3.10;;
33327;SDS011;19692;52.998;9.116;2023-09-19T10:31:47;7.83;;;3.50;;
33327;SDS011;19692;52.998;9.116;2023-09-19T10:34:16;6.60;;;2.60;;
33327;SDS011;19692;52.998;9.116;2023-09-19T10:36:46;9.60;;;3.17;;
33327;SDS011;19692;52.998;9.116;2023-09-19T10:39:13;11.50;;;3.20;;
33327;SDS011;19692;52.998;9.116;2023-09-19T10:41:44;7.57;;;2.67;;
33327;SDS011;19692;52.998;9.116;2023-09-19T10:44:20;9.47;;;3.00;;
33327;SDS011;19692;52.998;9.116;2023-09-19T10:46:50;9.60;;;3.00;;
33327;SDS011;19692;52.998;9.116;2023-09-19T10:49:18;8.47;;;3.30;;
33327;SDS011;19692;52.998;9.116;2023-09-19T10:51:45;10.50;;;3.70;;
33327;SDS011;19692;52.998;9.116;2023-09-19T10:54:16;7.03;;;2.60;;
33327;SDS011;19692;52.998;9.116;2023-09-19T10:56:47;8.53;;;3.30;;
33327;SDS011;19692;52.998;9.116;2023-09-19T10:59:19;7.47;;;3.10;;
33327;SDS011;19692;52.998;9.116;2023-09-19T11:01:47;7.53;;;2.97;;
33327;SDS011;19692;52.998;9.116;2023-09-19T11:04:26;8.47;;;3.20;;
33327;SDS011;19692;52.998;9.116;2023-09-19T11:06:59;9.00;;;3.33;;
33327;SDS011;19692;52.998;9.116;2023-09-19T11:09:51;11.43;;;3.40;;
33327;SDS011;19692;52.998;9.116;2023-09-19T11:14:57;10.93;;;3.67;;
33327;SDS011;19692;52.998;9.116;2023-09-19T11:30:31;10.57;;;3.83;;
33327;SDS011;19692;52.998;9.116;2023-09-19T11:43:49;7.67;;;3.27;;
33327;SDS011;19692;52.998;9.116;2023-09-19T11:46:17;6.37;;;2.90;;
33327;SDS011;19692;52.998;9.116;2023-09-19T11:48:49;8.83;;;3.33;;
33327;SDS011;19692;52.998;9.116;2023-09-19T11:51:20;7.50;;;2.90;;
33327;SDS011;19692;52.998;9.116;2023-09-19T11:53:49;8.67;;;2.93;;
33327;SDS011;19692;52.998;9.116;2023-09-19T11:56:17;9.67;;;3.40;;
33327;SDS011;19692;52.998;9.116;2023-09-19T11:58:49;9.27;;;3.33;;
33327;SDS011;19692;52.998;9.116;2023-09-19T12:01:23;9.80;;;3.40;;
33327;SDS011;19692;52.998;9.116;2023-09-19T12:03:58;7.77;;;2.50;;
33327;SDS011;19692;52.998;9.116;2023-09-19T12:06:27;6.83;;;3.00;;
33327;SDS011;19692;52.998;9.116;2023-09-19T12:09:01;6.57;;;2.73;;
33327;SDS011;19692;52.998;9.116;2023-09-19T12:11:32;7.57;;;3.00;;
33327;SDS011;19692;52.998;9.116;2023-09-19T12:13:58;7.47;;;3.60;;
33327;SDS011;19692;52.998;9.116;2023-09-19T12:16:26;5.60;;;2.50;;
33327;SDS011;19692;52.998;9.116;2023-09-19T12:18:55;7.40;;;3.03;;
33327;SDS011;19692;52.998;9.116;2023-09-19T12:21:27;8.33;;;3.27;;
33327;SDS011;19692;52.998;9.116;2023-09-19T12:26:29;11.80;;;3.43;;
33327;SDS011;19692;52.998;9.116;2023-09-19T12:29:12;8.10;;;2.90;;
33327;SDS011;19692;52.998;9.116;2023-09-19T12:31:50;8.77;;;3.33;;
33327;SDS011;19692;52.998;9.116;2023-09-19T12:34:29;7.57;;;2.87;;
33327;SDS011;19692;52.998;9.116;2023-09-19T12:37:09;6.47;;;3.43;;
33327;SDS011;19692;52.998;9.116;2023-09-19T12:39:38;8.60;;;3.73;;
33327;SDS011;19692;52.998;9.116;2023-09-19T12:42:06;6.30;;;2.77;;
33327;SDS011;19692;52.998;9.116;2023-09-19T12:44:40;8.90;;;3.37;;
33327;SDS011;19692;52.998;9.116;2023-09-19T12:47:15;6.27;;;3.50;;
33327;SDS011;19692;52.998;9.116;2023-09-19T12:52:51;7.90;;;3.23;;
33327;SDS011;19692;52.998;9.116;2023-09-19T13:00:41;7.63;;;3.50;;
33327;SDS011;19692;52.998;9.116;2023-09-19T13:11:35;9.60;;;3.10;;
33327;SDS011;19692;52.998;9.116;2023-09-19T13:13:48;7.33;;;3.93;;
33327;SDS011;19692;52.998;9.116;2023-09-19T13:16:52;15.87;;;3.77;;
33327;SDS011;19692;52.998;9.116;2023-09-19T13:22:40;9.63;;;3.50;;
33327;SDS011;19692;52.998;9.116;2023-09-19T13:25:15;8.50;;;3.20;;
33327;SDS011;19692;52.998;9.116;2023-09-19T13:27:43;9.57;;;3.37;;
33327;SDS011;19692;52.998;9.116;2023-09-19T13:30:19;7.67;;;3.30;;
33327;SDS011;19692;52.998;9.116;2023-09-19T13:32:46;6.53;;;3.10;;
33327;SDS011;19692;52.998;9.116;2023-09-19T13:35:12;11.97;;;3.70;;
33327;SDS011;19692;52.998;9.116;2023-09-19T13:37:39;7.60;;;3.40;;
33327;SDS011;19692;52.998;9.116;2023-09-19T13:42:59;10.20;;;3.57;;
33327;SDS011;19692;52.998;9.116;2023-09-19T13:45:26;8.90;;;2.87;;
33327;SDS011;19692;52.998;9.116;2023-09-19T13:47:55;9.37;;;3.47;;
33327;SDS011;19692;52.998;9.116;2023-09-19T13:50:21;7.07;;;2.83;;
33327;SDS011;19692;52.998;9.116;2023-09-19T13:52:53;6.67;;;3.17;;
33327;SDS011;19692;52.998;9.116;2023-09-19T13:55:19;8.70;;;3.47;;
33327;SDS011;19692;52.998;9.116;2023-09-19T13:57:46;10.17;;;3.30;;
33327;SDS011;19692;52.998;9.116;2023-09-19T14:00:24;7.37;;;3.20;;
33327;SDS011;19692;52.998;9.116;2023-09-19T14:02:50;8.93;;;3.20;;
33327;SDS011;19692;52.998;9.116;2023-09-19T14:05:16;7.47;;;3.47;;
33327;SDS011;19692;52.998;9.116;2023-09-19T14:07:44;8.53;;;3.33;;
33327;SDS011;19692;52.998;9.116;2023-09-19T14:10:11;9.43;;;3.30;;
33327;SDS011;19692;52.998;9.116;2023-09-19T14:12:37;10.20;;;3.10;;
33327;SDS011;19692;52.998;9.116;2023-09-19T14:15:06;11.53;;;3.37;;
33327;SDS011;19692;52.998;9.116;2023-09-19T14:17:35;9.90;;;3.03;;
33327;SDS011;19692;52.998;9.116;2023-09-19T14:20:03;6.17;;;2.77;;
33327;SDS011;19692;52.998;9.116;2023-09-19T14:22:31;6.93;;;3.30;;
33327;SDS011;19692;52.998;9.116;2023-09-19T14:24:57;9.23;;;3.53;;
33327;SDS011;19692;52.998;9.116;2023-09-19T14:27:24;8.77;;;3.90;;
33327;SDS011;19692;52.998;9.116;2023-09-19T14:29:50;7.40;;;3.17;;
33327;SDS011;19692;52.998;9.116;2023-09-19T14:32:16;8.10;;;3.20;;
33327;SDS011;19692;52.998;9.116;2023-09-19T14:34:42;7.87;;;3.13;;
33327;SDS011;19692;52.998;9.116;2023-09-19T14:37:12;8.77;;;3.10;;
33327;SDS011;19692;52.998;9.116;2023-09-19T14:39:38;6.07;;;2.80;;
33327;SDS011;19692;52.998;9.116;2023-09-19T14:42:05;7.77;;;3.17;;
33327;SDS011;19692;52.998;9.116;2023-09-19T14:44:31;7.03;;;3.30;;
33327;SDS011;19692;52.998;9.116;2023-09-19T14:46:57;12.27;;;3.00;;
33327;SDS011;19692;52.998;9.116;2023-09-19T14:49:23;11.57;;;3.23;;
33327;SDS011;19692;52.998;9.116;2023-09-19T14:51:50;9.27;;;3.27;;
33327;SDS011;19692;52.998;9.116;2023-09-19T14:54:17;7.40;;;3.10;;
33327;SDS011;19692;52.998;9.116;2023-09-19T14:56:43;6.60;;;2.67;;
33327;SDS011;19692;52.998;9.116;2023-09-19T14:59:10;6.57;;;3.10;;
33327;SDS011;19692;52.998;9.116;2023-09-19T15:01:36;8.17;;;2.83;;
33327;SDS011;19692;52.998;9.116;2023-09-19T15:04:02;7.93;;;3.37;;
33327;SDS011;19692;52.998;9.116;2023-09-19T15:06:27;8.47;;;2.97;;
33327;SDS011;19692;52.998;9.116;2023-09-19T15:08:53;9.93;;;3.50;;
33327;SDS011;19692;52.998;9.116;2023-09-19T15:11:20;9.67;;;3.40;;
33327;SDS011;19692;52.998;9.116;2023-09-19T15:13:46;10.20;;;3.87;;
33327;SDS011;19692;52.998;9.116;2023-09-19T15:16:15;9.70;;;3.03;;
33327;SDS011;19692;52.998;9.116;2023-09-19T15:18:42;9.67;;;3.70;;
33327;SDS011;19692;52.998;9.116;2023-09-19T15:21:12;9.27;;;3.20;;
33327;SDS011;19692;52.998;9.116;2023-09-19T15:23:40;5.67;;;2.93;;
33327;SDS011;19692;52.998;9.116;2023-09-19T15:26:08;8.33;;;3.00;;
33327;SDS011;19692;52.998;9.116;2023-09-19T15:28:39;6.30;;;2.63;;
33327;SDS011;19692;52.998;9.116;2023-09-19T15:31:09;6.27;;;3.50;;
33327;SDS011;19692;52.998;9.116;2023-09-19T15:33:37;7.67;;;2.80;;
33327;SDS011;19692;52.998;9.116;2023-09-19T15:36:03;7.37;;;2.93;;
33327;SDS011;19692;52.998;9.116;2023-09-19T15:41:35;9.53;;;2.70;;
33327;SDS011;19692;52.998;9.116;2023-09-19T15:44:12;8.00;;;3.13;;
33327;SDS011;19692;52.998;9.116;2023-09-19T15:46:44;7.67;;;2.87;;
33327;SDS011;19692;52.998;9.116;2023-09-19T15:49:11;6.37;;;2.87;;
33327;SDS011;19692;52.998;9.116;2023-09-19T15:51:38;10.63;;;3.43;;
33327;SDS011;19692;52.998;9.116;2023-09-19T15:54:11;5.87;;;3.13;;
33327;SDS011;19692;52.998;9.116;2023-09-19T15:56:42;7.30;;;3.40;;
33327;SDS011;19692;52.998;9.116;2023-09-19T15:59:16;9.10;;;3.20;;
33327;SDS011;19692;52.998;9.116;2023-09-19T16:01:42;9.23;;;3.53;;
33327;SDS011;19692;52.998;9.116;2023-09-19T16:04:09;8.27;;;3.30;;
33327;SDS011;19692;52.998;9.116;2023-09-19T16:06:36;9.93;;;3.10;;
33327;SDS011;19692;52.998;9.116;2023-09-19T16:09:03;7.83;;;3.27;;
33327;SDS011;19692;52.998;9.116;2023-09-19T16:11:32;8.37;;;3.20;;